Pocomoke City, Maryland
Current Conditions -  °F | °C
As of 11:21 PM on Tuesday 21 Oct 2014 (Local Time) from KWAL Reporting Station
Thunderstorm Thunderstorm  
Wind Chill: 57°   Ceiling: 4400
Heat Index: 57°   Visibility: 6mi
Dew Point: 55°   Wind: 7mph
Humidity: 93%   Direction: 20°NNE
Pressure: 29.86"   Gusts: NA
Location:  38.08°N, 75.57°W
Report Text: KWAL 220321Z AUTO 02006KT 6SM TSRA BR FEW017 BKN044 OVC070 14/13 A2986 RMK AO2 TSB00 P0023 T01390128
Loading
Personal Weather Stations






























Interactive Weather Map
Tropical Storm Tracking
New forecast layout! Learn more

10-Day Weather Forecast

Advertisements
Track Severe Weather on mobile